Aérodrome :
LOGIN :

S'inscrire | Disclaimer

   EN    FR    IT 

 










Légende :    VFR   VFR Marginal   IFR   IFR Intensif   IFR Très Intensif
Visi : 
Plafond : 
>= 8 km
>= 3000ft
5 à 8 km
1000 à 3000 ft
1500m à 5 km
500 à 1000 ft
800 à 1500m
200 à 500 ft
< 800m
< 200 ft
Symboles :   Orages  Brouillard  Fortes neiges  Fortes précipitations  Vent > 20 kt
SIGMETs :   Divers  Orages  Givrage  Turbulence  Onde Orograph.  Cendres Volcan.







- Altitude de l'aérodrome : 74 ft
- Code IATA : EIN


EHEH - Eindhoven

DERNIER METAR :
  • 220555Z AUTO 24013KT 200V270 9999 +DZ FEW008 BKN010 OVC012 10/09 Q1007 GRN 24018KT 9999 -RADZ BKN010 OVC013 TEMPO 24020G32KT 4500 DZ BKN008 OVC010

METARs EXPIRÉS :
  • 220525Z AUTO 24015KT 210V280 7000 -RA FEW009 BKN011 OVC014 10/09 Q1007 RERA REDZ GRN 24018KT 9999 -RADZ BKN010 OVC013 TEMPO 24020G32KT 4500 DZ BKN008 OVC010
  • 220505Z AUTO 24015KT 210V280 6000 +DZ BKN010 OVC012 10/09 Q1007 GRN
  • 220455Z AUTO 24018KT 9999 BKN011 OVC013 10/08 Q1007 GRN
  • 220425Z AUTO 24018KT 200V270 9999 BKN013 OVC016 10/08 Q1008 GRN
  • 220413Z AUTO 24018G28KT 200V280 9999 OVC014 10/08 Q1008 GRN
  • 220410Z AUTO 24017KT 210V280 9999 OVC015 10/08 Q1008 WHT
  • 220355Z AUTO 23021KT 210V270 9999 BKN016 OVC019 10/08 Q1008 WHT
  • 220325Z AUTO 23021KT 200V270 9999 SCT015 BKN019 BKN065 10/08 Q1008 WHT
  • 220319Z AUTO 23020G30KT 190V260 9999 FEW014 BKN017 BKN021 10/08 Q1008 WHT
  • 220310Z AUTO 23021KT 200V280 9999 FEW014 BKN016 OVC020 10/08 Q1008 WHT

TAF TAF EHEH
Valide du 22 à 06h jusqu'au 23 à 12h UTC


220522Z 2206/2312 24018G28KT 9999 SCT008 OVC015
PROB40
TEMPO 2206/2212 24020G33KT 4500 -RADZ SCT006 BKN008
PROB30
TEMPO 2212/2218 FEW012 SCT015 BKN020
TEMPO 2219/2306 4000 -RADZ FEW003 BKN005 OVC007
BECMG 2222/2301 24012G22KT
PROB40
TEMPO 2219/2310 3500 RADZ SCT005 OVC007
BECMG 2310/2312 23020G30KT FEW010 SCT016 BKN020
Pas de NOTAMs connus pour ce terrain.



MET'MAP, la Météo Aéronautique d'un coup d'oeil ! - Copyright ORBIFLY Décembre 2007 - Disclaimer

ORBIFLY MET'MAP TEAM :

Programmation & Développement : Alexandra Zaïnal
Conception & Développement : Baudouin d'Aumeries
Co-Programmation & Développement : Marc-Olivier Méhu
Soutien technique & logistique : Manuel Goepfert

Contact : metmap@orbifly.com




SOURCES & CREDITS :

   NOAA